createdAt,value
2023-02-01T00:02:44.097Z,2.05
2023-02-01T00:05:56.227Z,2.88
2023-02-01T00:08:59.916Z,2.58
2023-02-01T00:12:04.773Z,2.67
2023-02-01T00:15:09.467Z,2.92
2023-02-01T00:18:12.817Z,2.63
2023-02-01T00:21:17.832Z,2.67
2023-02-01T00:24:21.727Z,3.03
2023-02-01T00:27:26.450Z,2.67
2023-02-01T00:30:29.932Z,2.97
2023-02-01T00:33:34.676Z,2.20
2023-02-01T00:36:38.085Z,3.42
2023-02-01T00:39:41.552Z,2.60
2023-02-01T00:42:46.426Z,2.50
2023-02-01T00:45:50.515Z,2.55
2023-02-01T00:51:57.354Z,3.15
2023-02-01T00:55:00.737Z,2.80
2023-02-01T00:58:06.904Z,2.53
2023-02-01T01:01:13.523Z,3.22
2023-02-01T01:04:17.466Z,3.53
2023-02-01T01:07:21.635Z,2.47
2023-02-01T01:10:25.209Z,2.75
2023-02-01T01:13:29.959Z,2.88
2023-02-01T01:16:34.348Z,3.05
2023-02-01T01:19:37.634Z,2.78
2023-02-01T01:22:41.579Z,3.20
2023-02-01T01:25:44.941Z,2.63
2023-02-01T01:28:50.625Z,2.47
2023-02-01T01:31:54.193Z,3.10
2023-02-01T01:34:57.721Z,2.95
2023-02-01T01:38:03.065Z,3.50
2023-02-01T01:41:06.507Z,3.60
2023-02-01T01:45:01.999Z,2.92
2023-02-01T01:51:14.880Z,3.42
2023-02-01T01:54:25.343Z,3.90
2023-02-01T01:57:35.476Z,3.55
2023-02-01T02:00:41.099Z,3.60
2023-02-01T02:03:48.690Z,3.80
2023-02-01T02:06:58.358Z,3.90
2023-02-01T02:10:02.599Z,3.90
2023-02-01T02:13:06.181Z,3.70
2023-02-01T02:16:42.514Z,3.38
2023-02-01T02:20:41.671Z,4.03
2023-02-01T02:24:30.684Z,2.78
2023-02-01T02:27:54.296Z,3.47
2023-02-01T02:31:35.391Z,3.55
2023-02-01T02:34:46.254Z,3.47
2023-02-01T02:37:59.719Z,3.58
2023-02-01T02:41:34.573Z,4.45
2023-02-01T02:45:03.624Z,4.13
2023-02-01T02:48:19.963Z,4.32
2023-02-01T02:51:49.818Z,3.28
2023-02-01T02:54:55.457Z,3.72
2023-02-01T02:58:18.703Z,4.03
2023-02-01T03:01:40.608Z,4.05
2023-02-01T03:04:47.972Z,3.90
2023-02-01T03:08:03.844Z,4.55
2023-02-01T03:11:10.343Z,4.78
2023-02-01T03:14:16.700Z,4.00
2023-02-01T03:17:28.694Z,4.38
2023-02-01T03:20:33.363Z,4.00
2023-02-01T03:23:40.435Z,4.25
2023-02-01T03:26:52.138Z,3.53
2023-02-01T03:30:03.763Z,4.30
2023-02-01T03:33:22.916Z,4.88
2023-02-01T03:36:33.336Z,4.40
2023-02-01T03:39:48.874Z,5.45
2023-02-01T03:42:58.595Z,4.82
2023-02-01T03:46:11.844Z,4.57
2023-02-01T03:49:26.509Z,4.38
2023-02-01T03:52:35.127Z,4.28
2023-02-01T03:55:41.181Z,3.05
2023-02-01T03:58:59.265Z,4.03
2023-02-01T04:02:02.863Z,3.85
2023-02-01T04:05:07.020Z,4.22
2023-02-01T04:11:15.123Z,3.60
2023-02-01T04:14:18.440Z,4.28
2023-02-01T04:17:21.854Z,4.27
2023-02-01T04:20:25.587Z,3.30
2023-02-01T04:23:28.753Z,3.83
2023-02-01T04:26:33.705Z,2.92
2023-02-01T04:29:37.778Z,4.13
2023-02-01T04:32:41.832Z,3.25
2023-02-01T04:35:45.563Z,3.15
2023-02-01T04:41:53.272Z,3.38
2023-02-01T04:44:56.364Z,2.55
2023-02-01T04:47:59.591Z,3.38
2023-02-01T04:51:03.845Z,2.70
2023-02-01T04:57:14.331Z,2.53
2023-02-01T05:00:18.989Z,2.17
2023-02-01T05:03:22.422Z,2.22
2023-02-01T05:06:25.867Z,1.58
2023-02-01T05:09:29.177Z,1.75
2023-02-01T05:12:51.708Z,1.10
2023-02-01T05:15:55.243Z,1.70
2023-02-01T05:18:58.702Z,1.20
2023-02-01T05:22:02.107Z,1.20
2023-02-01T05:25:08.219Z,1.77
2023-02-01T05:28:15.130Z,1.52
2023-02-01T05:31:19.260Z,1.50
2023-02-01T05:37:28.585Z,1.38
2023-02-01T05:40:31.990Z,1.17
2023-02-01T05:43:37.049Z,1.40
2023-02-01T05:46:40.549Z,1.20
2023-02-01T05:49:44.144Z,1.38
2023-02-01T05:52:47.844Z,1.38
2023-02-01T05:55:51.485Z,1.92
2023-02-01T05:58:56.209Z,1.50
2023-02-01T06:01:59.781Z,1.80
2023-02-01T06:05:03.172Z,1.75
2023-02-01T06:08:08.493Z,1.58
2023-02-01T06:11:26.758Z,1.30
2023-02-01T06:14:38.017Z,1.30
2023-02-01T06:17:42.951Z,1.40
2023-02-01T06:20:46.360Z,1.83
2023-02-01T06:23:49.813Z,1.90
2023-02-01T06:26:53.209Z,1.48
2023-02-01T06:29:58.029Z,1.80
2023-02-01T06:33:01.828Z,1.50
2023-02-01T06:36:07.734Z,1.92
2023-02-01T06:39:11.253Z,2.05
2023-02-01T06:42:14.665Z,1.50
2023-02-01T06:45:19.563Z,1.85
2023-02-01T06:48:23.020Z,2.17
2023-02-01T06:51:29.287Z,1.40
2023-02-01T06:54:34.508Z,1.77
2023-02-01T06:57:38.109Z,1.85
2023-02-01T07:00:42.975Z,1.50
2023-02-01T07:03:50.854Z,1.50
2023-02-01T07:06:54.200Z,1.60
2023-02-01T07:09:57.625Z,1.90
2023-02-01T07:13:01.270Z,2.25
2023-02-01T07:16:08.500Z,1.60
2023-02-01T07:19:11.968Z,1.58
2023-02-01T07:22:17.804Z,1.50
2023-02-01T07:25:21.507Z,1.52
2023-02-01T07:28:25.246Z,1.40
2023-02-01T07:31:30.177Z,1.10
2023-02-01T07:34:34.901Z,1.52
2023-02-01T07:37:38.296Z,1.58
2023-02-01T07:40:42.601Z,1.40
2023-02-01T07:43:47.055Z,1.75
2023-02-01T07:46:52.735Z,1.30
2023-02-01T07:49:57.440Z,1.05
2023-02-01T07:53:02.055Z,1.05
2023-02-01T07:56:11.329Z,0.95
2023-02-01T07:59:16.077Z,1.58
2023-02-01T08:02:21.331Z,1.17
2023-02-01T08:05:24.939Z,1.33
2023-02-01T08:08:28.324Z,0.80
2023-02-01T08:11:32.787Z,1.70
2023-02-01T08:14:36.055Z,1.20
2023-02-01T08:17:40.856Z,1.47
2023-02-01T08:20:46.443Z,1.67
2023-02-01T08:23:50.127Z,1.27
2023-02-01T08:26:54.887Z,1.48
2023-02-01T08:29:58.312Z,1.25
2023-02-01T08:33:03.072Z,1.05
2023-02-01T08:36:09.649Z,1.20
2023-02-01T08:39:13.500Z,1.23
2023-02-01T08:42:35.012Z,1.70
2023-02-01T08:45:38.900Z,1.33
2023-02-01T08:48:44.525Z,1.50
2023-02-01T08:51:47.881Z,2.00
2023-02-01T08:54:51.243Z,1.27
2023-02-01T08:57:57.168Z,2.00
2023-02-01T09:01:08.157Z,1.60
2023-02-01T09:04:13.361Z,1.25
2023-02-01T09:07:17.733Z,1.90
2023-02-01T09:10:34.382Z,1.70
2023-02-01T09:13:38.398Z,1.50
2023-02-01T09:16:41.919Z,1.95
2023-02-01T09:19:46.658Z,1.52
2023-02-01T09:22:50.060Z,1.50
2023-02-01T09:25:53.417Z,1.45
2023-02-01T09:28:56.969Z,1.40
2023-02-01T09:32:04.010Z,1.45
2023-02-01T09:35:10.349Z,1.45
2023-02-01T09:38:14.004Z,1.35
2023-02-01T09:41:32.744Z,1.30
2023-02-01T09:44:50.771Z,1.65
2023-02-01T09:47:57.033Z,1.85
2023-02-01T09:51:06.626Z,1.95
2023-02-01T09:54:15.462Z,1.65
2023-02-01T09:57:24.495Z,1.25
2023-02-01T10:00:32.533Z,1.98
2023-02-01T10:03:38.601Z,1.88
2023-02-01T10:06:57.320Z,1.48
2023-02-01T10:10:09.961Z,1.95
2023-02-01T10:13:42.450Z,2.15
2023-02-01T10:16:56.880Z,2.33
2023-02-01T10:20:13.958Z,2.20
2023-02-01T10:23:51.136Z,2.00
2023-02-01T10:27:01.721Z,1.88
2023-02-01T10:30:22.174Z,1.40
2023-02-01T10:33:32.037Z,1.58
2023-02-01T10:36:41.759Z,1.77
2023-02-01T10:39:47.311Z,1.98
2023-02-01T10:42:53.565Z,2.47
2023-02-01T10:45:57.083Z,1.50
2023-02-01T10:49:04.803Z,1.23
2023-02-01T10:52:14.243Z,1.25
2023-02-01T10:55:41.741Z,1.50
2023-02-01T10:58:47.812Z,1.10
2023-02-01T11:01:52.903Z,1.63
2023-02-01T11:05:02.981Z,1.27
2023-02-01T11:08:06.610Z,1.48
2023-02-01T11:11:12.996Z,1.92
2023-02-01T11:14:17.790Z,1.73
2023-02-01T11:17:29.175Z,1.73
2023-02-01T11:20:40.815Z,1.48
2023-02-01T11:23:47.611Z,1.67
2023-02-01T11:26:53.790Z,1.95
2023-02-01T11:30:04.908Z,1.73
2023-02-01T11:33:14.578Z,1.52
2023-02-01T11:36:25.058Z,1.60
2023-02-01T11:39:32.773Z,1.80
2023-02-01T11:42:37.705Z,1.48
2023-02-01T11:45:41.182Z,1.63
2023-02-01T11:48:44.554Z,1.60
2023-02-01T11:52:01.313Z,1.63
2023-02-01T11:55:31.272Z,1.40
2023-02-01T11:59:03.576Z,1.30
2023-02-01T12:02:56.874Z,1.45
2023-02-01T12:06:07.957Z,1.67
2023-02-01T12:09:29.855Z,1.45
2023-02-01T12:12:50.848Z,1.58
2023-02-01T12:16:10.124Z,1.33
2023-02-01T12:19:30.621Z,1.50
2023-02-01T12:22:45.992Z,1.88
2023-02-01T12:26:07.329Z,1.65
2023-02-01T12:29:26.101Z,2.10
2023-02-01T12:32:50.413Z,1.90
2023-02-01T12:36:10.711Z,1.80
2023-02-01T12:39:25.569Z,1.77
2023-02-01T12:42:34.891Z,1.95
2023-02-01T12:45:45.030Z,2.30
2023-02-01T12:48:59.630Z,1.98
2023-02-01T12:52:09.083Z,1.63
2023-02-01T12:55:24.753Z,1.90
2023-02-01T12:58:35.517Z,2.20
2023-02-01T13:01:47.505Z,1.70
2023-02-01T13:05:04.271Z,1.58
2023-02-01T13:08:12.137Z,2.10
2023-02-01T13:11:22.995Z,2.00
2023-02-01T13:14:35.810Z,2.25
2023-02-01T13:17:41.425Z,2.45
2023-02-01T13:20:55.543Z,2.42
2023-02-01T13:23:59.898Z,2.28
2023-02-01T13:27:03.731Z,2.55
2023-02-01T13:30:14.022Z,2.38
2023-02-01T13:33:53.727Z,2.30
2023-02-01T13:37:22.828Z,2.20
2023-02-01T13:40:42.788Z,2.15
2023-02-01T13:43:51.723Z,2.60
2023-02-01T13:47:00.726Z,1.80
2023-02-01T13:50:15.986Z,2.28
2023-02-01T13:53:29.801Z,2.78
2023-02-01T13:56:43.138Z,2.78
2023-02-01T13:59:55.777Z,2.67
2023-02-01T14:03:16.793Z,2.72
2023-02-01T14:06:45.810Z,2.78
2023-02-01T14:09:50.397Z,3.20
2023-02-01T14:13:07.433Z,3.00
2023-02-01T14:16:17.084Z,2.95
2023-02-01T14:19:24.319Z,2.90
2023-02-01T14:22:36.518Z,2.83
2023-02-01T14:25:42.660Z,2.60
2023-02-01T14:29:02.865Z,3.10
2023-02-01T14:32:13.493Z,2.75
2023-02-01T14:35:23.523Z,2.70
2023-02-01T14:38:27.613Z,2.47
2023-02-01T14:41:37.143Z,2.42
2023-02-01T14:44:40.622Z,2.63
2023-02-01T14:48:36.210Z,2.38
2023-02-01T14:51:40.337Z,2.55
2023-02-01T14:57:53.590Z,3.08
2023-02-01T15:01:01.598Z,2.95
2023-02-01T15:04:09.391Z,2.47
2023-02-01T15:07:17.608Z,3.13
2023-02-01T15:10:23.205Z,2.70
2023-02-01T15:13:30.192Z,2.60
2023-02-01T15:16:33.655Z,3.05
2023-02-01T15:19:36.963Z,2.47
2023-02-01T15:22:40.449Z,3.10
2023-02-01T15:25:47.884Z,3.35
2023-02-01T15:28:53.215Z,3.47
2023-02-01T15:31:56.430Z,3.42
2023-02-01T15:35:01.094Z,3.67
2023-02-01T15:38:33.383Z,3.38
2023-02-01T15:41:36.913Z,3.35
2023-02-01T15:44:47.211Z,3.17
2023-02-01T15:47:52.006Z,3.47
2023-02-01T15:50:57.164Z,4.65
2023-02-01T15:54:04.230Z,3.50
2023-02-01T15:57:07.616Z,4.07
2023-02-01T16:00:28.031Z,3.37
2023-02-01T16:03:39.821Z,3.90
2023-02-01T16:06:50.986Z,3.40
2023-02-01T16:09:58.205Z,4.13
2023-02-01T16:13:02.071Z,4.30
2023-02-01T16:16:09.969Z,4.70
2023-02-01T16:19:14.037Z,4.30
2023-02-01T16:22:20.199Z,4.18
2023-02-01T16:25:23.484Z,4.65
2023-02-01T16:28:27.044Z,4.78
2023-02-01T16:31:34.716Z,5.17
2023-02-01T16:34:37.793Z,5.50
2023-02-01T16:37:40.937Z,4.53
2023-02-01T16:40:46.063Z,4.68
2023-02-01T16:43:52.991Z,4.97
2023-02-01T16:46:57.524Z,5.78
2023-02-01T16:50:08.251Z,5.53
2023-02-01T16:53:20.078Z,5.95
2023-02-01T16:56:25.982Z,5.25
2023-02-01T16:59:29.079Z,5.68
2023-02-01T17:05:37.979Z,5.18
2023-02-01T17:08:45.174Z,5.60
2023-02-01T17:11:48.382Z,4.75
2023-02-01T17:14:52.461Z,6.30
2023-02-01T17:17:58.715Z,5.10
2023-02-01T17:21:02.935Z,4.88
2023-02-01T17:24:08.022Z,5.30
2023-02-01T17:27:12.641Z,4.38
2023-02-01T17:30:16.912Z,4.95
2023-02-01T17:33:28.208Z,4.90
2023-02-01T17:36:40.015Z,5.20
2023-02-01T17:39:55.587Z,5.30
2023-02-01T17:42:58.924Z,4.55
2023-02-01T17:46:06.754Z,5.57
2023-02-01T17:49:11.506Z,5.43
2023-02-01T17:52:19.754Z,4.47
2023-02-01T17:55:26.742Z,4.82
2023-02-01T17:58:33.281Z,4.55
2023-02-01T18:01:36.943Z,4.50
2023-02-01T18:07:44.989Z,4.50
2023-02-01T18:10:50.650Z,4.73
2023-02-01T18:13:54.940Z,4.93
2023-02-01T18:16:58.403Z,4.70
2023-02-01T18:20:03.163Z,4.57
2023-02-01T18:23:06.612Z,3.63
2023-02-01T18:26:13.132Z,4.25
2023-02-01T18:29:16.489Z,4.15
2023-02-01T18:32:19.973Z,4.90
2023-02-01T18:35:26.775Z,4.75
2023-02-01T18:38:30.180Z,4.97
2023-02-01T18:41:34.647Z,5.13
2023-02-01T18:44:39.195Z,3.85
2023-02-01T18:47:43.947Z,4.57
2023-02-01T18:50:51.777Z,4.38
2023-02-01T18:53:55.429Z,4.82
2023-02-01T18:56:59.318Z,5.20
2023-02-01T19:00:02.856Z,5.00
2023-02-01T19:03:13.638Z,3.95
2023-02-01T19:06:19.947Z,4.80
2023-02-01T19:09:23.146Z,4.38
2023-02-01T19:12:26.590Z,4.40
2023-02-01T19:15:30.198Z,4.40
2023-02-01T19:18:33.585Z,4.53
2023-02-01T19:21:38.479Z,4.22
2023-02-01T19:24:41.960Z,4.35
2023-02-01T19:27:46.876Z,4.13
2023-02-01T19:31:04.224Z,4.43
2023-02-01T19:34:10.832Z,3.88
2023-02-01T19:37:18.153Z,4.00
2023-02-01T19:40:27.042Z,4.50
2023-02-01T19:43:30.833Z,3.83
2023-02-01T19:46:38.025Z,3.67
2023-02-01T19:49:42.465Z,3.03
2023-02-01T19:55:56.706Z,4.15
2023-02-01T19:59:00.133Z,3.42
2023-02-01T20:02:03.201Z,3.93
2023-02-01T20:05:10.977Z,4.22
2023-02-01T20:08:15.467Z,2.80
2023-02-01T20:11:18.470Z,2.90
2023-02-01T20:14:22.023Z,3.40
2023-02-01T20:17:25.509Z,2.90
2023-02-01T20:20:29.123Z,2.25
2023-02-01T20:23:33.927Z,3.00
2023-02-01T20:26:38.530Z,2.45
2023-02-01T20:29:42.286Z,2.67
2023-02-01T20:32:45.671Z,2.85
2023-02-01T20:35:49.987Z,2.27
2023-02-01T20:38:55.048Z,2.47
2023-02-01T20:41:59.144Z,2.67
2023-02-01T20:48:05.977Z,1.77
2023-02-01T20:51:10.476Z,2.00
2023-02-01T20:54:15.131Z,2.65
2023-02-01T20:57:18.703Z,1.92
2023-02-01T21:00:23.363Z,1.77
2023-02-01T21:03:27.509Z,2.38
2023-02-01T21:09:35.735Z,2.40
2023-02-01T21:12:40.304Z,2.47
2023-02-01T21:15:47.110Z,2.38
2023-02-01T21:18:54.484Z,3.03
2023-02-01T21:21:59.956Z,3.22
2023-02-01T21:25:05.211Z,2.60
2023-02-01T21:28:08.719Z,2.53
2023-02-01T21:31:13.876Z,2.83
2023-02-01T21:34:17.598Z,3.28
2023-02-01T21:37:25.579Z,2.50
2023-02-01T21:40:30.355Z,2.50
2023-02-01T21:43:33.699Z,1.98
2023-02-01T21:46:37.298Z,2.20
2023-02-01T21:49:40.774Z,2.20
2023-02-01T21:52:44.897Z,2.78
2023-02-01T21:55:49.251Z,2.92
2023-02-01T21:58:52.397Z,3.35
2023-02-01T22:01:56.008Z,3.37
2023-02-01T22:04:59.572Z,3.20
2023-02-01T22:08:03.075Z,3.38
2023-02-01T22:11:07.866Z,3.13
2023-02-01T22:14:11.343Z,2.42
2023-02-01T22:17:14.960Z,2.92
2023-02-01T22:20:18.940Z,2.90
2023-02-01T22:23:21.963Z,2.10
2023-02-01T22:26:27.786Z,2.55
2023-02-01T22:29:31.196Z,2.05
2023-02-01T22:32:34.559Z,2.07
2023-02-01T22:35:39.225Z,1.57
2023-02-01T22:38:42.656Z,1.60
2023-02-01T22:41:47.393Z,1.40
2023-02-01T22:44:51.239Z,1.05
2023-02-01T22:47:54.242Z,0.80
2023-02-01T22:50:59.488Z,1.38
2023-02-01T22:54:02.599Z,0.63
2023-02-01T22:57:08.048Z,0.90
2023-02-01T23:00:13.271Z,0.88
2023-02-01T23:03:16.644Z,0.77
2023-02-01T23:06:20.068Z,0.90
2023-02-01T23:09:25.730Z,0.63
2023-02-01T23:12:30.176Z,0.60
2023-02-01T23:15:33.409Z,0.40
2023-02-01T23:18:36.712Z,0.87
2023-02-01T23:21:39.716Z,0.40
2023-02-01T23:24:43.250Z,0.82
2023-02-01T23:27:48.817Z,1.02
2023-02-01T23:30:52.299Z,0.75
2023-02-01T23:33:56.547Z,1.13
2023-02-01T23:36:59.635Z,1.15
2023-02-01T23:40:02.808Z,1.20
2023-02-01T23:43:25.363Z,0.50
2023-02-01T23:46:32.002Z,0.60
2023-02-01T23:49:35.129Z,0.50
2023-02-01T23:52:38.206Z,1.00
2023-02-01T23:55:41.703Z,1.35
2023-02-01T23:58:46.506Z,1.55
